Terminal Aerodrome Forecast
Issued by NWS

Home | Current Version | Previous Version | Text Only | Print | Product List | Glossary On
Versions: 1 2 3 4 5 6 7 8 9 10 11 12 13 14 15
000
FTAK31 PAJN 302300
TAFAYA
TAF
PAYA 302330Z 3100/3124 VRB04KT P6SM VCSH SCT025 BKN050
      TEMPO 3100/3102 18008KT SCT010 BKN025
     FM310300 00000KT P6SM VCSH SCT050 BKN100
     FM311000 00000KT P6SM BCFG SCT001 SCT100
     FM311800 VRB03KT P6SM SCT100
     FM312100 25005KT P6SM SCT100
      AMD LTD TO CLD VIS AND WIND 3101/3110=

USA.gov is the U.S. government's official web portal to all federal, state and local government web resources and services.